Time;durP1;ratioP1;P1;durP2;ratioP2;P2;SDS_P1;SDS_P2;PMS_P1;PMS_P2;Temp;Humidity;BMP_temperature;BMP_pressure;BME280_temperature;BME280_humidity;BME280_pressure;Samples;Min_cycle;Max_cycle;Signal;HPM_P1;HPM_P2
2023/06/01 00:04:27;;;;;;;;;;;;;;;12.43;96.38;102284.16;10498011;28;20556;-66
2023/06/01 00:09:29;;;;;;;;;;;;;;;12.64;95.82;102278.00;10498670;28;19956;-66
2023/06/01 00:14:32;;;;;;;;;;;;;;;12.78;92.84;102272.13;10498394;28;19925;-66
2023/06/01 00:19:34;;;;;;;;;;;;;;;12.85;91.83;102272.72;10497896;28;20383;-66
2023/06/01 00:24:37;;;;;;;;;;;;;;;12.39;97.03;102259.78;10497637;28;19970;-66
2023/06/01 00:29:39;;;;;;;;;;;;;;;12.32;95.85;102265.34;10497073;28;19936;-66
2023/06/01 00:34:41;;;;;;;;;;;;;;;11.73;98.85;102272.88;10479536;28;20284;-66
2023/06/01 00:39:43;;;;;;;;;;;;;;;12.10;96.59;102268.00;10495907;28;20314;-66
2023/06/01 00:44:46;;;;;;;;;;;;;;;12.60;93.93;102268.53;10497842;28;19928;-67
2023/06/01 00:49:48;;;;;;;;;;;;;;;11.98;96.34;102262.31;10498009;28;19925;-67
2023/06/01 00:54:50;;;;;;;;;;;;;;;12.15;96.96;102256.38;10497622;28;19924;-66
2023/06/01 00:59:53;;;;;;;;;;;;;;;12.42;94.50;102256.16;10497598;28;19925;-66
2023/06/01 01:04:56;;;;;;;;;;;;;;;12.09;95.75;102264.53;10486111;28;20379;-66
2023/06/01 01:10:07;;;;;;;;;;;;;;;11.53;100.00;102277.16;10504887;28;19929;-66
2023/06/01 01:15:13;;;;;;;;;;;;;;;11.53;99.89;102281.50;10504269;28;20007;-67
2023/06/01 01:20:17;;;;;;;;;;;;;;;11.93;98.63;102260.81;10504480;28;19931;-67
2023/06/01 01:25:28;;;;;;;;;;;;;;;11.84;97.39;102268.09;10503146;28;19935;-67
2023/06/01 01:30:30;;;;;;;;;;;;;;;11.77;100.00;102271.88;10504106;28;19925;-67
2023/06/01 01:35:33;;;;;;;;;;;;;;;11.37;100.00;102264.66;10502024;28;19924;-67
2023/06/01 01:40:35;;;;;;;;;;;;;;;11.78;100.00;102268.31;10501774;28;19946;-67
2023/06/01 01:45:37;;;;;;;;;;;;;;;11.84;100.00;102265.47;10502912;28;20391;-67
2023/06/01 01:50:41;;;;;;;;;;;;;;;11.76;100.00;102270.16;10502612;28;19928;-67
2023/06/01 01:55:44;;;;;;;;;;;;;;;11.41;100.00;102272.34;10501886;28;19925;-67
2023/06/01 02:00:47;;;;;;;;;;;;;;;11.92;97.63;102267.81;10501702;28;19924;-67
2023/06/01 02:05:49;;;;;;;;;;;;;;;11.70;98.60;102273.00;10500861;28;19928;-67
2023/06/01 02:10:51;;;;;;;;;;;;;;;11.58;100.00;102270.84;10502485;28;19931;-67
2023/06/01 02:15:54;;;;;;;;;;;;;;;11.41;100.00;102271.50;10501411;28;19924;-67
2023/06/01 02:20:56;;;;;;;;;;;;;;;12.03;98.61;102262.13;10502041;28;20287;-67
2023/06/01 02:25:58;;;;;;;;;;;;;;;12.19;96.50;102263.22;10501110;28;20015;-67
2023/06/01 02:31:00;;;;;;;;;;;;;;;12.15;94.26;102258.16;10501689;28;20019;-67
2023/06/01 02:36:03;;;;;;;;;;;;;;;11.81;94.79;102256.84;10500719;28;20379;-70
2023/06/01 02:41:05;;;;;;;;;;;;;;;11.84;97.55;102256.75;10501421;28;19924;-67
2023/06/01 02:46:07;;;;;;;;;;;;;;;12.21;94.19;102252.66;10501019;28;19931;-67
2023/06/01 02:51:09;;;;;;;;;;;;;;;11.86;94.06;102253.13;10500105;28;19956;-67
2023/06/01 02:56:12;;;;;;;;;;;;;;;12.16;93.92;102247.59;10544683;22;19924;-64
2023/06/01 03:01:14;;;;;;;;;;;;;;;11.86;96.90;102254.91;10542466;28;19931;-64
2023/06/01 03:06:17;;;;;;;;;;;;;;;12.06;94.55;102252.38;10584130;28;19924;-63
2023/06/01 03:11:20;;;;;;;;;;;;;;;11.62;96.68;102257.56;10584172;28;19924;-64
2023/06/01 03:16:23;;;;;;;;;;;;;;;11.77;99.14;102256.13;10583844;28;19928;-64
2023/06/01 03:21:27;;;;;;;;;;;;;;;11.54;97.55;102257.00;10583177;28;20010;-64
2023/06/01 03:26:29;;;;;;;;;;;;;;;11.77;96.46;102256.13;10584148;28;19950;-64
2023/06/01 03:31:34;;;;;;;;;;;;;;;12.11;94.16;102246.09;10583352;28;19924;-64
2023/06/01 03:36:37;;;;;;;;;;;;;;;11.99;93.93;102243.03;10583277;28;19971;-64
2023/06/01 03:41:40;;;;;;;;;;;;;;;12.22;94.22;102239.47;10583111;28;20019;-64
2023/06/01 03:46:42;;;;;;;;;;;;;;;12.15;93.33;102245.03;10583048;28;19924;-65
2023/06/01 03:51:44;;;;;;;;;;;;;;;11.95;95.79;102244.06;10582743;28;19924;-64
2023/06/01 03:56:46;;;;;;;;;;;;;;;11.95;95.31;102245.84;10582149;28;19931;-64
2023/06/01 04:01:49;;;;;;;;;;;;;;;11.55;99.47;102244.75;10581983;28;19923;-64
2023/06/01 04:06:51;;;;;;;;;;;;;;;11.94;96.17;102239.75;10581837;28;20393;-64
2023/06/01 04:11:54;;;;;;;;;;;;;;;11.97;94.28;102244.88;10581865;28;19928;-64
2023/06/01 04:16:56;;;;;;;;;;;;;;;12.33;92.94;102243.44;10582321;28;19930;-64
2023/06/01 04:21:59;;;;;;;;;;;;;;;12.32;94.90;102246.97;10582291;28;19924;-65
2023/06/01 04:27:02;;;;;;;;;;;;;;;11.55;97.01;102249.97;10582077;28;20030;-65
2023/06/01 04:32:05;;;;;;;;;;;;;;;12.49;94.17;102248.88;10582302;28;19924;-65
2023/06/01 04:37:08;;;;;;;;;;;;;;;12.31;94.61;102254.00;10584384;28;20050;-65
2023/06/01 04:42:13;;;;;;;;;;;;;;;12.20;92.99;102256.19;10571427;28;20282;-65
2023/06/01 04:47:16;;;;;;;;;;;;;;;12.27;90.94;102255.03;10589927;28;19923;-64
2023/06/01 04:52:19;;;;;;;;;;;;;;;11.40;95.92;102264.53;10571775;28;20014;-64
2023/06/01 04:57:23;;;;;;;;;;;;;;;12.12;90.86;102259.16;10589191;28;19924;-64
2023/06/01 05:02:25;;;;;;;;;;;;;;;11.43;94.20;102262.69;10589285;28;19924;-64
2023/06/01 05:07:28;;;;;;;;;;;;;;;11.59;93.77;102275.22;10589209;28;19970;-64
2023/06/01 05:12:30;;;;;;;;;;;;;;;11.76;93.62;102264.06;10570861;28;20360;-64
2023/06/01 05:17:32;;;;;;;;;;;;;;;12.44;91.60;102267.47;10588007;28;20263;-64
2023/06/01 05:22:35;;;;;;;;;;;;;;;12.20;91.25;102257.03;10579446;28;19924;-64
2023/06/01 05:27:37;;;;;;;;;;;;;;;12.85;88.69;102261.38;10588275;28;19930;-64
2023/06/01 05:32:40;;;;;;;;;;;;;;;12.93;85.80;102256.63;10588144;28;19931;-64
2023/06/01 05:37:42;;;;;;;;;;;;;;;12.74;86.77;102260.06;10569802;28;20010;-64
2023/06/01 05:42:47;;;;;;;;;;;;;;;12.30;87.46;102265.41;10587120;28;19992;-64
2023/06/01 05:47:49;;;;;;;;;;;;;;;12.44;87.57;102264.84;10586251;28;19930;-64
2023/06/01 05:52:51;;;;;;;;;;;;;;;12.39;89.26;102272.03;10587157;28;19924;-64
2023/06/01 05:57:54;;;;;;;;;;;;;;;12.60;86.94;102271.16;10586329;28;19927;-64
2023/06/01 06:02:56;;;;;;;;;;;;;;;12.41;88.26;102273.69;10586968;28;20006;-64
2023/06/01 06:07:58;;;;;;;;;;;;;;;13.15;87.27;102267.91;10586611;28;20005;-64
2023/06/01 06:13:00;;;;;;;;;;;;;;;12.86;86.63;102269.19;10585921;28;19946;-64
2023/06/01 06:18:02;;;;;;;;;;;;;;;12.89;85.17;102266.41;10586157;28;19924;-64
2023/06/01 06:23:05;;;;;;;;;;;;;;;12.76;85.50;102262.59;10586067;28;19930;-64
2023/06/01 06:28:08;;;;;;;;;;;;;;;12.07;85.03;102269.00;10585195;28;20007;-65
2023/06/01 06:33:10;;;;;;;;;;;;;;;12.43;87.39;102263.97;10585740;28;19928;-65
2023/06/01 06:38:16;;;;;;;;;;;;;;;12.90;84.97;102268.13;10585510;28;19930;-65
2023/06/01 06:43:18;;;;;;;;;;;;;;;13.31;82.96;102262.78;10585272;28;19924;-65
2023/06/01 06:48:21;;;;;;;;;;;;;;;13.42;82.21;102275.50;10584465;28;20026;-65
2023/06/01 06:53:23;;;;;;;;;;;;;;;13.54;79.83;102281.97;10584699;28;19930;-64
2023/06/01 06:58:26;;;;;;;;;;;;;;;12.86;83.43;102282.34;10565820;28;19924;-65
2023/06/01 07:03:28;;;;;;;;;;;;;;;13.31;82.77;102280.34;10584378;28;19924;-64
2023/06/01 07:08:34;;;;;;;;;;;;;;;14.54;77.58;102281.53;10566267;28;19945;-64
2023/06/01 07:13:37;;;;;;;;;;;;;;;13.87;77.37;102283.91;10584063;28;19924;-65
2023/06/01 07:18:40;;;;;;;;;;;;;;;13.99;77.92;102275.47;10583886;28;19924;-64
2023/06/01 07:23:43;;;;;;;;;;;;;;;14.30;76.24;102272.16;10583071;28;20395;-64
2023/06/01 07:28:46;;;;;;;;;;;;;;;14.35;76.48;102264.03;10565008;28;20038;-65
2023/06/01 07:33:48;;;;;;;;;;;;;;;15.79;71.89;102267.94;10584054;28;19930;-65
2023/06/01 07:38:50;;;;;;;;;;;;;;;15.65;72.33;102265.19;10583207;28;19924;-64
2023/06/01 07:43:52;;;;;;;;;;;;;;;15.65;71.64;102263.41;10582546;28;19923;-65
2023/06/01 07:48:55;;;;;;;;;;;;;;;15.91;69.81;102259.31;10583015;28;19928;-65
2023/06/01 07:53:57;;;;;;;;;;;;;;;14.75;72.99;102263.81;10582065;28;20484;-64
2023/06/01 07:59:00;;;;;;;;;;;;;;;14.86;73.11;102272.88;10582703;28;20027;-64
2023/06/01 08:04:03;;;;;;;;;;;;;;;16.58;68.60;102258.13;10581997;28;20002;-65
2023/06/01 08:09:05;;;;;;;;;;;;;;;17.00;68.18;102260.00;10582444;28;19931;-65
2023/06/01 08:14:08;;;;;;;;;;;;;;;15.74;69.91;102272.59;10588715;28;20350;-64
2023/06/01 08:19:11;;;;;;;;;;;;;;;15.64;69.44;102266.97;10591088;28;19962;-64
2023/06/01 08:24:13;;;;;;;;;;;;;;;15.57;69.73;102266.47;10591312;28;19965;-65
2023/06/01 08:29:15;;;;;;;;;;;;;;;16.98;67.31;102266.31;10590756;28;20023;-65
2023/06/01 08:34:20;;;;;;;;;;;;;;;16.51;66.56;102252.38;10590559;28;20002;-65
2023/06/01 08:39:23;;;;;;;;;;;;;;;15.70;68.40;102249.94;10589744;28;19924;-65
2023/06/01 08:44:26;;;;;;;;;;;;;;;17.56;65.98;102244.13;10590070;28;19959;-64
2023/06/01 08:49:32;;;;;;;;;;;;;;;17.70;66.50;102237.09;10590002;28;19924;-64
2023/06/01 08:54:35;;;;;;;;;;;;;;;17.90;62.48;102235.84;10580850;28;19931;-64
2023/06/01 08:59:38;;;;;;;;;;;;;;;16.61;62.73;102232.38;10589403;28;19930;-64
2023/06/01 09:04:44;;;;;;;;;;;;;;;18.98;62.96;102226.78;10588709;28;20449;-65
2023/06/01 09:09:46;;;;;;;;;;;;;;;17.49;62.94;102223.47;10571519;28;19928;-64
2023/06/01 09:14:49;;;;;;;;;;;;;;;20.06;61.06;102215.47;10588897;28;19927;-65
2023/06/01 09:19:54;;;;;;;;;;;;;;;19.56;58.19;102215.56;10570060;28;20290;-65
2023/06/01 09:24:57;;;;;;;;;;;;;;;18.72;58.49;102208.16;10588265;28;20350;-65
2023/06/01 09:30:00;;;;;;;;;;;;;;;20.07;59.01;102196.72;10588313;28;19930;-65
2023/06/01 09:35:03;;;;;;;;;;;;;;;20.75;56.24;102191.56;10588053;28;19923;-65
2023/06/01 09:40:18;;;;;;;;;;;;;;;20.02;56.84;102186.47;10568958;28;20030;-65
2023/06/01 09:45:21;;;;;;;;;;;;;;;21.05;55.59;102187.44;10587690;28;19924;-65
2023/06/01 09:50:33;;;;;;;;;;;;;;;22.52;56.32;102186.88;10569472;28;20010;-65
2023/06/01 09:55:35;;;;;;;;;;;;;;;21.66;54.15;102181.63;10586689;28;20396;-65
2023/06/01 10:00:38;;;;;;;;;;;;;;;20.41;55.63;102184.38;10586993;28;19971;-65
2023/06/01 10:05:40;;;;;;;;;;;;;;;20.42;56.66;102187.88;10569035;28;19969;-65
2023/06/01 10:10:44;;;;;;;;;;;;;;;22.15;54.16;102172.16;10568521;28;20007;-65
2023/06/01 10:15:46;;;;;;;;;;;;;;;21.99;52.16;102161.97;10585892;28;19924;-65
2023/06/01 10:20:48;;;;;;;;;;;;;;;22.52;52.00;102163.69;10568330;28;19923;-65
2023/06/01 10:25:50;;;;;;;;;;;;;;;22.30;51.13;102158.53;10586215;28;19923;-65
2023/06/01 10:31:11;;;;;;;;;;;;;;;24.07;50.60;102154.25;10585215;28;20371;-65
2023/06/01 10:36:14;;;;;;;;;;;;;;;23.66;49.99;102152.72;10584407;28;20340;-65
2023/06/01 10:41:30;;;;;;;;;;;;;;;23.73;50.19;102146.66;10585551;28;19924;-65
2023/06/01 10:46:36;;;;;;;;;;;;;;;23.28;50.72;102149.88;10585229;28;19924;-65
2023/06/01 10:51:38;;;;;;;;;;;;;;;23.95;49.36;102152.72;10567029;28;19953;-65
2023/06/01 10:56:40;;;;;;;;;;;;;;;23.50;49.56;102150.59;10583993;28;20367;-65
2023/06/01 11:01:43;;;;;;;;;;;;;;;24.26;49.94;102136.47;10584054;28;19966;-65
2023/06/01 11:06:46;;;;;;;;;;;;;;;24.64;49.50;102131.97;10584589;28;19977;-65
2023/06/01 11:11:51;;;;;;;;;;;;;;;25.52;45.31;102120.69;10583691;28;20375;-65
2023/06/01 11:16:54;;;;;;;;;;;;;;;24.50;48.04;102124.41;10583958;28;20008;-65
2023/06/01 11:22:00;;;;;;;;;;;;;;;25.44;48.15;102117.94;10565371;28;20015;-65
2023/06/01 11:27:10;;;;;;;;;;;;;;;23.43;47.50;102114.75;10583833;28;19924;-65
2023/06/01 11:32:12;;;;;;;;;;;;;;;24.84;46.28;102106.75;10565622;28;19923;-65
2023/06/01 11:37:15;;;;;;;;;;;;;;;23.95;47.19;102109.91;10547884;28;20396;-65
2023/06/01 11:42:19;;;;;;;;;;;;;;;24.23;49.02;102105.47;10565281;28;19967;-65
2023/06/01 11:47:21;;;;;;;;;;;;;;;25.90;44.86;102102.53;10581471;28;19924;-65
2023/06/01 11:52:23;;;;;;;;;;;;;;;25.50;45.71;102101.22;10564992;28;20018;-65
2023/06/01 11:57:25;;;;;;;;;;;;;;;24.44;47.23;102093.69;10582274;28;19924;-65
2023/06/01 12:02:29;;;;;;;;;;;;;;;26.73;41.68;102088.56;10582759;28;19924;-66
2023/06/01 12:07:34;;;;;;;;;;;;;;;24.32;44.66;102084.19;10583193;28;19928;-65
2023/06/01 12:12:37;;;;;;;;;;;;;;;26.72;45.85;102078.81;10563989;28;19924;-65
2023/06/01 12:17:55;;;;;;;;;;;;;;;26.54;42.37;102078.06;10582466;28;20006;-66
2023/06/01 12:23:03;;;;;;;;;;;;;;;26.51;41.72;102074.69;10581850;28;19924;-66
2023/06/01 12:28:06;;;;;;;;;;;;;;;26.94;44.27;102073.84;10581549;28;20332;-65
2023/06/01 12:33:09;;;;;;;;;;;;;;;27.34;43.15;102062.31;10563639;28;19934;-65
2023/06/01 12:38:12;;;;;;;;;;;;;;;25.81;42.58;102066.78;10563468;28;20007;-66
2023/06/01 12:43:18;;;;;;;;;;;;;;;27.77;42.66;102057.56;10581995;28;19927;-66
2023/06/01 12:48:34;;;;;;;;;;;;;;;27.79;42.59;102068.97;10581820;28;19924;-66
2023/06/01 12:53:36;;;;;;;;;;;;;;;26.29;40.46;102065.38;10581074;28;20359;-65
2023/06/01 12:58:39;;;;;;;;;;;;;;;27.92;40.31;102059.53;10566153;28;20015;-66
2023/06/01 13:03:41;;;;;;;;;;;;;;;28.61;39.08;102054.41;10589557;28;19924;-66
2023/06/01 13:08:43;;;;;;;;;;;;;;;27.49;40.11;102059.78;10589241;28;20134;-65
2023/06/01 13:13:46;;;;;;;;;;;;;;;27.34;39.75;102046.16;10589003;28;19924;-65
2023/06/01 13:18:50;;;;;;;;;;;;;;;27.56;40.64;102044.63;10588821;28;19923;-66
2023/06/01 13:23:53;;;;;;;;;;;;;;;26.30;41.40;102034.00;10587954;28;19923;-66
2023/06/01 13:28:55;;;;;;;;;;;;;;;27.43;39.59;102031.69;10587914;28;19927;-66
2023/06/01 13:33:58;;;;;;;;;;;;;;;26.55;42.05;102040.31;10587615;28;20264;-65
2023/06/01 13:39:01;;;;;;;;;;;;;;;27.80;42.26;102038.34;10588016;28;19930;-66
2023/06/01 13:44:03;;;;;;;;;;;;;;;27.07;40.03;102039.25;10569573;28;19930;-65
2023/06/01 13:49:06;;;;;;;;;;;;;;;25.80;41.17;102042.78;10587544;28;19925;-66
2023/06/01 13:54:10;;;;;;;;;;;;;;;26.82;40.87;102033.00;10587105;28;19931;-68
2023/06/01 13:59:12;;;;;;;;;;;;;;;26.81;40.70;102034.00;10587286;28;19931;-66
2023/06/01 14:04:14;;;;;;;;;;;;;;;26.01;44.49;102040.59;10587007;28;20023;-65
2023/06/01 14:09:17;;;;;;;;;;;;;;;26.77;44.55;102043.41;10585800;28;19928;-66
2023/06/01 14:14:19;;;;;;;;;;;;;;;25.87;45.66;102039.31;10586752;28;19923;-66
2023/06/01 14:19:22;;;;;;;;;;;;;;;26.05;46.16;102043.78;10585785;28;20381;-65
2023/06/01 14:24:24;;;;;;;;;;;;;;;22.15;51.85;102052.13;10586286;28;19928;-65
2023/06/01 14:29:26;;;;;;;;;;;;;;;22.24;52.08;102043.34;10585441;28;19924;-65
2023/06/01 14:34:28;;;;;;;;;;;;;;;22.40;53.69;102050.84;10585279;28;20278;-65
2023/06/01 14:39:31;;;;;;;;;;;;;;;23.16;52.80;102044.13;10584878;28;19924;-65
2023/06/01 14:44:33;;;;;;;;;;;;;;;21.96;53.04;102049.38;10585105;28;20285;-66
2023/06/01 14:49:35;;;;;;;;;;;;;;;21.20;54.83;102045.06;10584691;28;20010;-65
2023/06/01 14:54:48;;;;;;;;;;;;;;;23.41;50.53;102042.72;10585296;28;19924;-66
2023/06/01 14:59:50;;;;;;;;;;;;;;;22.38;50.73;102036.81;10584147;28;19923;-65
2023/06/01 15:05:04;;;;;;;;;;;;;;;22.78;50.81;102032.44;10584683;28;19928;-66
2023/06/01 15:10:07;;;;;;;;;;;;;;;22.96;49.54;102029.91;10572816;22;19924;-69
2023/06/01 15:15:10;;;;;;;;;;;;;;;23.90;48.43;102027.44;10524207;28;19977;-68
2023/06/01 15:20:12;;;;;;;;;;;;;;;24.35;47.53;102025.00;10583774;28;19970;-68
2023/06/01 15:25:14;;;;;;;;;;;;;;;23.87;48.64;102025.09;10583923;28;19928;-68
2023/06/01 15:30:17;;;;;;;;;;;;;;;22.31;50.17;102041.00;10583546;28;19982;-68
2023/06/01 15:35:19;;;;;;;;;;;;;;;22.86;50.54;102037.91;10583912;28;19923;-68
2023/06/01 15:40:21;;;;;;;;;;;;;;;22.20;49.99;102036.56;10582762;28;19924;-68
2023/06/01 15:45:24;;;;;;;;;;;;;;;22.94;51.37;102030.03;10583559;28;19928;-68
2023/06/01 15:50:26;;;;;;;;;;;;;;;22.85;48.98;102024.69;10583092;28;19930;-69
2023/06/01 15:55:28;;;;;;;;;;;;;;;22.71;50.39;102025.94;10582838;28;19930;-69
2023/06/01 16:00:31;;;;;;;;;;;;;;;23.28;49.11;102018.13;10564161;28;20370;-68
2023/06/01 16:05:33;;;;;;;;;;;;;;;22.69;50.50;102017.22;10582686;28;19966;-68
2023/06/01 16:10:35;;;;;;;;;;;;;;;21.71;52.05;102022.16;10582078;28;19930;-68
2023/06/01 16:15:37;;;;;;;;;;;;;;;21.25;53.73;102010.91;10581718;28;20303;-69
2023/06/01 16:20:40;;;;;;;;;;;;;;;22.33;50.95;102011.53;10582479;28;19962;-69
2023/06/01 16:25:42;;;;;;;;;;;;;;;21.40;51.27;102000.78;10564213;28;19931;-69
2023/06/01 16:30:44;;;;;;;;;;;;;;;20.97;51.95;101999.88;10582161;28;19956;-68
2023/06/01 16:35:47;;;;;;;;;;;;;;;21.17;53.20;101997.38;10588536;28;20401;-68
2023/06/01 16:40:49;;;;;;;;;;;;;;;21.21;52.22;101989.97;10589745;28;20297;-69
2023/06/01 16:45:51;;;;;;;;;;;;;;;20.57;52.29;101996.94;10590118;28;19924;-69
2023/06/01 16:50:55;;;;;;;;;;;;;;;21.12;52.76;102002.25;10589944;28;19981;-67
2023/06/01 16:55:57;;;;;;;;;;;;;;;20.90;52.88;101995.19;10589966;28;19931;-68
2023/06/01 17:01:00;;;;;;;;;;;;;;;20.58;53.26;101996.81;10589649;28;19924;-68
2023/06/01 17:06:02;;;;;;;;;;;;;;;20.66;53.20;101995.38;10589117;28;20301;-68
2023/06/01 17:11:05;;;;;;;;;;;;;;;19.67;54.11;101990.66;10588513;28;20297;-68
2023/06/01 17:16:07;;;;;;;;;;;;;;;19.06;55.79;101996.16;10589292;28;20010;-68
2023/06/01 17:21:10;;;;;;;;;;;;;;;19.83;54.55;101982.34;10588195;28;20294;-68
2023/06/01 17:26:12;;;;;;;;;;;;;;;20.07;54.27;101988.53;10588027;28;20298;-68
2023/06/01 17:31:14;;;;;;;;;;;;;;;19.19;56.99;101979.31;10569760;28;19927;-68
2023/06/01 17:36:16;;;;;;;;;;;;;;;19.73;55.72;101984.00;10587356;28;19959;-68
2023/06/01 17:41:19;;;;;;;;;;;;;;;19.28;56.61;101978.59;10587406;28;20267;-68
2023/06/01 17:46:21;;;;;;;;;;;;;;;19.22;56.49;101979.94;10587082;28;19924;-68
2023/06/01 17:51:23;;;;;;;;;;;;;;;19.21;56.53;101978.22;10586990;28;20321;-68
2023/06/01 17:56:25;;;;;;;;;;;;;;;18.55;57.76;101970.66;10586738;28;19923;-68
2023/06/01 18:01:28;;;;;;;;;;;;;;;18.56;57.20;101976.81;10587121;28;19924;-68
2023/06/01 18:06:30;;;;;;;;;;;;;;;18.37;58.11;101980.81;10568993;28;19924;-68
2023/06/01 18:11:32;;;;;;;;;;;;;;;17.85;59.23;101984.44;10586034;28;19924;-69
2023/06/01 18:16:35;;;;;;;;;;;;;;;17.68;60.74;101988.25;10586532;28;19934;-67
2023/06/01 18:21:37;;;;;;;;;;;;;;;16.83;60.77;101995.66;10586392;28;19924;-69
2023/06/01 18:26:40;;;;;;;;;;;;;;;17.49;60.76;101993.13;10586105;28;19927;-70
2023/06/01 18:31:42;;;;;;;;;;;;;;;16.06;64.10;101995.22;10585271;28;19924;-68
2023/06/01 18:36:44;;;;;;;;;;;;;;;16.50;62.53;102004.81;10585091;28;19978;-68
2023/06/01 18:41:46;;;;;;;;;;;;;;;15.48;64.46;102003.03;10584877;28;20290;-69
2023/06/01 18:46:49;;;;;;;;;;;;;;;14.94;65.64;101998.22;10567285;28;19924;-68
2023/06/01 18:51:54;;;;;;;;;;;;;;;15.20;64.77;102009.09;10566480;28;19924;-68
2023/06/01 18:56:56;;;;;;;;;;;;;;;15.53;64.49;102014.19;10566111;28;19923;-67
2023/06/01 19:01:59;;;;;;;;;;;;;;;15.75;63.51;102008.50;10584776;28;19931;-68
2023/06/01 19:07:01;;;;;;;;;;;;;;;15.71;65.07;102014.03;10584632;28;19931;-68
2023/06/01 19:12:03;;;;;;;;;;;;;;;16.08;64.79;102019.75;10583983;28;19924;-67
2023/06/01 19:17:06;;;;;;;;;;;;;;;15.49;65.25;102019.72;10566061;28;19923;-68
2023/06/01 19:22:11;;;;;;;;;;;;;;;15.14;65.74;102023.47;10583949;28;19930;-68
2023/06/01 19:27:14;;;;;;;;;;;;;;;14.63;68.13;102026.31;10565057;28;19923;-68
2023/06/01 19:32:16;;;;;;;;;;;;;;;14.59;67.68;102034.44;10582881;28;19930;-68
2023/06/01 19:37:18;;;;;;;;;;;;;;;14.86;66.12;102035.56;10583402;28;19930;-68
2023/06/01 19:42:25;;;;;;;;;;;;;;;14.59;66.55;102043.22;10582743;28;19924;-68
2023/06/01 19:47:33;;;;;;;;;;;;;;;14.14;66.93;102047.38;10564556;28;19924;-68
2023/06/01 19:52:40;;;;;;;;;;;;;;;14.71;65.36;102054.00;10583029;28;19924;-68
2023/06/01 19:57:42;;;;;;;;;;;;;;;14.23;66.14;102052.13;10565046;28;19924;-68
2023/06/01 20:02:46;;;;;;;;;;;;;;;14.18;65.41;102048.03;10582034;28;21560;-68
2023/06/01 20:07:57;;;;;;;;;;;;;;;14.72;65.91;102058.38;10581106;28;19946;-68
2023/06/01 20:13:03;;;;;;;;;;;;;;;14.31;65.97;102065.75;10565613;28;19924;-68
2023/06/01 20:18:08;;;;;;;;;;;;;;;14.12;67.77;102054.47;10582424;28;19924;-68
2023/06/01 20:23:12;;;;;;;;;;;;;;;14.22;66.53;102052.19;10582352;28;20026;-68
2023/06/01 20:28:14;;;;;;;;;;;;;;;14.16;67.75;102063.94;10563619;28;20393;-68
2023/06/01 20:33:19;;;;;;;;;;;;;;;14.52;67.45;102060.25;10581598;28;20337;-67
2023/06/01 20:38:21;;;;;;;;;;;;;;;14.32;67.12;102063.94;10547303;28;19924;-68
2023/06/01 20:43:24;;;;;;;;;;;;;;;14.09;67.88;102059.91;10581858;28;19970;-69
2023/06/01 20:48:45;;;;;;;;;;;;;;;13.74;67.67;102062.56;10563971;28;19930;-69
2023/06/01 20:53:48;;;;;;;;;;;;;;;13.54;69.38;102063.56;10581133;28;20358;-69
2023/06/01 20:58:50;;;;;;;;;;;;;;;13.67;68.49;102062.03;10562770;28;19930;-68
2023/06/01 21:03:53;;;;;;;;;;;;;;;13.44;68.59;102057.91;10581681;28;19930;-67
2023/06/01 21:08:56;;;;;;;;;;;;;;;13.47;68.46;102062.19;10563434;28;20007;-68
2023/06/01 21:13:58;;;;;;;;;;;;;;;13.75;67.23;102062.50;10581509;28;19949;-67
2023/06/01 21:19:00;;;;;;;;;;;;;;;13.94;67.56;102059.78;10582923;28;20010;-68
